createdAt,value
2023-03-02T00:02:32.516Z,818.74
2023-03-02T00:05:41.990Z,827.10
2023-03-02T00:08:48.880Z,861.77
2023-03-02T00:11:55.789Z,861.07
2023-03-02T00:15:01.716Z,837.22
2023-03-02T00:18:11.203Z,813.29
2023-03-02T00:21:17.545Z,835.99
2023-03-02T00:24:24.259Z,860.88
2023-03-02T00:27:30.363Z,868.60
2023-03-02T00:30:37.140Z,937.16
2023-03-02T00:33:46.406Z,983.71
2023-03-02T00:36:53.258Z,974.28
2023-03-02T00:39:59.266Z,974.41
2023-03-02T00:43:06.144Z,970.32
2023-03-02T00:46:14.569Z,957.51
2023-03-02T00:49:23.924Z,974.99
2023-03-02T00:52:29.905Z,963.55
2023-03-02T00:55:36.478Z,969.28
2023-03-02T00:58:42.617Z,982.76
2023-03-02T01:01:58.414Z,990.68
2023-03-02T01:05:09.966Z,970.77
2023-03-02T01:08:16.904Z,938.31
2023-03-02T01:11:25.984Z,943.12
2023-03-02T01:14:34.727Z,920.33
2023-03-02T01:17:41.476Z,921.59
2023-03-02T01:20:50.601Z,943.60
2023-03-02T01:23:56.443Z,979.04
2023-03-02T01:27:06.150Z,964.74
2023-03-02T01:30:14.339Z,951.04
2023-03-02T01:33:21.460Z,963.49
2023-03-02T01:36:30.981Z,962.14
2023-03-02T01:39:37.919Z,959.05
2023-03-02T01:43:02.497Z,955.14
2023-03-02T01:46:17.363Z,961.70
2023-03-02T01:49:31.647Z,983.03
2023-03-02T01:52:43.364Z,976.16
2023-03-02T01:55:50.638Z,985.43
2023-03-02T01:59:04.330Z,969.24
2023-03-02T02:02:14.834Z,957.17
2023-03-02T02:05:28.313Z,974.37
2023-03-02T02:08:38.102Z,980.33
2023-03-02T02:11:46.095Z,993.00
2023-03-02T02:14:54.287Z,1014.07
2023-03-02T02:18:01.010Z,1018.03
2023-03-02T02:21:08.551Z,984.31
2023-03-02T02:24:28.081Z,975.88
2023-03-02T02:27:36.780Z,961.88
2023-03-02T02:30:46.575Z,944.16
2023-03-02T02:34:00.577Z,936.97
2023-03-02T02:37:16.531Z,927.12
2023-03-02T02:40:44.727Z,925.77
2023-03-02T02:43:58.475Z,915.41
2023-03-02T02:47:05.861Z,908.64
2023-03-02T02:50:23.744Z,911.59
2023-03-02T02:53:38.085Z,912.06
2023-03-02T02:56:47.439Z,913.98
2023-03-02T03:00:04.060Z,905.23
2023-03-02T03:03:31.986Z,897.51
2023-03-02T03:06:42.418Z,910.88
2023-03-02T03:10:03.490Z,911.31
2023-03-02T03:13:11.416Z,908.03
2023-03-02T03:16:24.057Z,886.97
2023-03-02T03:19:33.336Z,864.38
2023-03-02T03:22:42.219Z,838.65
2023-03-02T03:25:50.048Z,820.53
2023-03-02T03:28:57.428Z,827.37
2023-03-02T03:32:08.438Z,818.90
2023-03-02T03:35:15.762Z,803.93
2023-03-02T03:38:22.112Z,781.82
2023-03-02T03:41:30.429Z,773.73
2023-03-02T03:44:36.564Z,752.97
2023-03-02T03:47:45.798Z,770.53
2023-03-02T03:50:52.245Z,806.83
2023-03-02T03:54:08.542Z,890.46
2023-03-02T03:57:17.615Z,926.64
2023-03-02T04:00:26.260Z,1015.67
2023-03-02T04:03:40.029Z,985.14
2023-03-02T04:06:47.775Z,1031.74
2023-03-02T04:10:03.615Z,996.33
2023-03-02T04:13:14.141Z,976.35
2023-03-02T04:16:20.244Z,976.99
2023-03-02T04:19:29.638Z,1010.23
2023-03-02T04:22:37.308Z,1013.72
2023-03-02T04:25:44.191Z,963.89
2023-03-02T04:28:54.150Z,914.61
2023-03-02T04:32:01.705Z,879.73
2023-03-02T04:35:12.789Z,862.09
2023-03-02T04:38:19.781Z,879.66
2023-03-02T04:41:26.667Z,878.69
2023-03-02T04:44:33.245Z,859.53
2023-03-02T04:47:39.294Z,841.32
2023-03-02T04:50:49.019Z,828.16
2023-03-02T04:53:57.509Z,799.34
2023-03-02T04:57:04.227Z,782.54
2023-03-02T05:00:13.147Z,785.19
2023-03-02T05:03:22.242Z,808.65
2023-03-02T05:06:31.155Z,842.26
2023-03-02T05:09:39.500Z,835.49
2023-03-02T05:12:58.359Z,858.29
2023-03-02T05:16:05.175Z,892.79
2023-03-02T05:19:18.055Z,911.79
2023-03-02T05:22:27.280Z,942.74
2023-03-02T05:25:37.144Z,1033.98
2023-03-02T05:28:47.077Z,1085.26
2023-03-02T05:31:53.574Z,1255.92
2023-03-02T05:35:00.661Z,1488.59
2023-03-02T05:38:09.454Z,1457.36
2023-03-02T05:41:16.062Z,1342.12
2023-03-02T05:44:22.109Z,1229.70
2023-03-02T05:47:28.764Z,1203.13
2023-03-02T05:50:34.999Z,1197.88
2023-03-02T05:53:44.180Z,1314.78
2023-03-02T05:56:50.444Z,1362.04
2023-03-02T05:59:57.048Z,1295.77
2023-03-02T06:03:06.358Z,1214.62
2023-03-02T06:06:14.453Z,1115.14
2023-03-02T06:09:22.997Z,1111.29
2023-03-02T06:12:29.834Z,1105.00
2023-03-02T06:15:35.744Z,1016.64
2023-03-02T06:18:46.149Z,1001.52
2023-03-02T06:21:51.929Z,958.04
2023-03-02T06:25:01.077Z,893.39
2023-03-02T06:28:09.852Z,890.86
2023-03-02T06:31:16.451Z,900.97
2023-03-02T06:34:22.274Z,903.66
2023-03-02T06:37:28.991Z,859.53
2023-03-02T06:40:40.015Z,784.22
2023-03-02T06:43:46.840Z,765.11
2023-03-02T06:46:52.661Z,760.93
2023-03-02T06:49:59.495Z,757.24
2023-03-02T06:53:05.758Z,759.01
2023-03-02T06:56:14.979Z,748.85
2023-03-02T06:59:20.731Z,746.07
2023-03-02T07:02:27.332Z,729.71
2023-03-02T07:05:34.051Z,714.48
2023-03-02T07:08:40.635Z,661.87
2023-03-02T07:11:49.069Z,689.61
2023-03-02T07:14:55.608Z,742.72
2023-03-02T07:18:01.604Z,742.45
2023-03-02T07:21:09.334Z,716.58
2023-03-02T07:24:15.118Z,655.58
2023-03-02T07:27:24.535Z,632.45
2023-03-02T07:30:32.743Z,604.71
2023-03-02T07:33:40.257Z,591.43
2023-03-02T07:36:45.965Z,575.03
2023-03-02T07:39:54.224Z,544.49
2023-03-02T07:43:02.778Z,542.03
2023-03-02T07:46:09.706Z,524.96
2023-03-02T07:49:15.601Z,514.64
2023-03-02T07:52:22.169Z,521.09
2023-03-02T07:55:28.051Z,513.09
2023-03-02T07:58:38.902Z,505.99
2023-03-02T08:01:44.822Z,523.84
2023-03-02T08:04:52.458Z,530.42
2023-03-02T08:07:58.275Z,525.70
2023-03-02T08:11:08.943Z,539.52
2023-03-02T08:14:17.579Z,536.64
2023-03-02T08:17:24.282Z,508.79
2023-03-02T08:20:30.378Z,496.74
2023-03-02T08:23:37.327Z,483.38
2023-03-02T08:26:44.853Z,439.98
2023-03-02T08:29:54.690Z,433.16
2023-03-02T08:33:04.425Z,460.47
2023-03-02T08:36:17.837Z,444.81
2023-03-02T08:39:23.965Z,431.50
2023-03-02T08:42:30.657Z,327.71
2023-03-02T08:45:40.805Z,263.13
2023-03-02T08:48:48.305Z,244.09
2023-03-02T08:51:56.462Z,237.87
2023-03-02T08:55:04.131Z,243.69
2023-03-02T08:58:10.078Z,241.66
2023-03-02T09:01:22.184Z,237.45
2023-03-02T09:04:28.024Z,226.40
2023-03-02T09:07:35.814Z,202.43
2023-03-02T09:10:42.180Z,212.71
2023-03-02T09:13:49.162Z,211.26
2023-03-02T09:16:57.555Z,206.82
2023-03-02T09:20:04.276Z,206.46
2023-03-02T09:23:11.202Z,199.60
2023-03-02T09:26:17.968Z,196.50
2023-03-02T09:29:23.824Z,195.69
2023-03-02T09:32:33.351Z,219.47
2023-03-02T09:35:42.131Z,202.54
2023-03-02T09:38:48.803Z,192.85
2023-03-02T09:42:44.397Z,191.08
2023-03-02T09:46:11.740Z,168.83
2023-03-02T09:49:35.816Z,177.03
2023-03-02T09:52:53.668Z,176.57
2023-03-02T09:56:02.649Z,167.83
2023-03-02T09:59:24.078Z,174.11
2023-03-02T10:02:38.367Z,170.48
2023-03-02T10:05:51.163Z,170.19
2023-03-02T10:08:58.119Z,165.19
2023-03-02T10:12:45.107Z,162.42
2023-03-02T10:16:11.643Z,165.68
2023-03-02T10:19:28.699Z,161.19
2023-03-02T10:22:49.486Z,163.11
2023-03-02T10:26:05.421Z,152.45
2023-03-02T10:29:42.751Z,143.96
2023-03-02T10:32:55.084Z,159.35
2023-03-02T10:36:01.330Z,160.12
2023-03-02T10:39:19.346Z,155.81
2023-03-02T10:42:33.889Z,150.66
2023-03-02T10:45:40.567Z,157.79
2023-03-02T10:48:56.367Z,156.31
2023-03-02T10:52:08.570Z,157.58
2023-03-02T10:55:20.193Z,155.09
2023-03-02T10:58:33.624Z,144.23
2023-03-02T11:01:39.473Z,135.92
2023-03-02T11:04:46.489Z,143.45
2023-03-02T11:07:57.703Z,151.69
2023-03-02T11:11:08.310Z,151.62
2023-03-02T11:14:20.388Z,156.06
2023-03-02T11:17:37.455Z,155.78
2023-03-02T11:20:50.217Z,157.09
2023-03-02T11:24:12.407Z,163.86
2023-03-02T11:27:30.657Z,153.69
2023-03-02T11:30:49.969Z,162.16
2023-03-02T11:34:18.034Z,158.41
2023-03-02T11:37:32.994Z,156.41
2023-03-02T11:40:49.842Z,149.44
2023-03-02T11:44:04.971Z,163.33
2023-03-02T11:47:16.295Z,163.26
2023-03-02T11:50:24.341Z,472.61
2023-03-02T11:53:44.452Z,446.94
2023-03-02T11:56:51.291Z,160.74
2023-03-02T12:00:02.496Z,163.04
2023-03-02T12:03:41.553Z,240.10
2023-03-02T12:06:47.347Z,176.49
2023-03-02T12:10:07.809Z,161.37
2023-03-02T12:13:26.234Z,165.11
2023-03-02T12:16:43.254Z,156.77
2023-03-02T12:19:51.761Z,166.22
2023-03-02T12:23:11.648Z,160.07
2023-03-02T12:26:34.054Z,158.09
2023-03-02T12:29:44.325Z,155.91
2023-03-02T12:33:07.035Z,156.33
2023-03-02T12:36:28.087Z,159.45
2023-03-02T12:40:11.686Z,144.35
2023-03-02T12:43:32.718Z,143.38
2023-03-02T12:46:41.121Z,137.58
2023-03-02T12:50:00.758Z,130.81
2023-03-02T12:53:10.075Z,143.69
2023-03-02T12:56:26.995Z,144.54
2023-03-02T12:59:32.992Z,138.63
2023-03-02T13:02:40.313Z,141.99
2023-03-02T13:05:50.169Z,142.12
2023-03-02T13:09:01.608Z,145.84
2023-03-02T13:12:08.194Z,148.79
2023-03-02T13:15:20.501Z,151.99
2023-03-02T13:18:32.167Z,145.22
2023-03-02T13:21:42.933Z,146.73
2023-03-02T13:24:54.810Z,139.25
2023-03-02T13:28:07.652Z,141.54
2023-03-02T13:31:28.081Z,170.63
2023-03-02T13:34:52.717Z,142.96
2023-03-02T13:38:07.721Z,135.34
2023-03-02T13:41:25.924Z,136.58
2023-03-02T13:44:37.632Z,180.51
2023-03-02T13:47:44.779Z,595.92
2023-03-02T13:51:03.037Z,344.97
2023-03-02T13:54:25.073Z,157.09
2023-03-02T13:57:35.743Z,177.68
2023-03-02T14:00:43.267Z,151.11
2023-03-02T14:03:49.226Z,201.55
2023-03-02T14:06:58.138Z,295.43
2023-03-02T14:10:07.344Z,246.47
2023-03-02T14:13:22.806Z,250.04
2023-03-02T14:16:28.597Z,247.84
2023-03-02T14:19:35.252Z,225.17
2023-03-02T14:22:41.063Z,212.08
2023-03-02T14:25:51.113Z,212.29
2023-03-02T14:29:05.585Z,205.09
2023-03-02T14:32:16.024Z,217.10
2023-03-02T14:35:21.963Z,198.19
2023-03-02T14:38:30.725Z,191.68
2023-03-02T14:41:52.865Z,201.31
2023-03-02T14:45:00.545Z,186.63
2023-03-02T14:48:06.859Z,175.06
2023-03-02T14:51:28.400Z,170.23
2023-03-02T14:54:43.846Z,271.57
2023-03-02T14:58:01.177Z,180.33
2023-03-02T15:01:08.624Z,169.43
2023-03-02T15:04:15.124Z,187.21
2023-03-02T15:07:27.714Z,167.69
2023-03-02T15:10:34.841Z,149.90
2023-03-02T15:13:45.724Z,154.45
2023-03-02T15:16:52.600Z,186.44
2023-03-02T15:19:58.822Z,164.90
2023-03-02T15:23:05.853Z,157.07
2023-03-02T15:26:14.920Z,153.77
2023-03-02T15:29:24.907Z,154.16
2023-03-02T15:32:30.798Z,157.45
2023-03-02T15:35:37.431Z,148.89
2023-03-02T15:38:43.449Z,157.47
2023-03-02T15:41:50.137Z,155.38
2023-03-02T15:44:58.636Z,176.48
2023-03-02T15:48:05.280Z,186.99
2023-03-02T15:51:12.940Z,267.72
2023-03-02T15:54:20.997Z,209.45
2023-03-02T15:57:26.823Z,192.06
2023-03-02T16:00:37.968Z,170.86
2023-03-02T16:03:43.842Z,164.14
2023-03-02T16:06:50.688Z,167.44
2023-03-02T16:09:56.796Z,208.76
2023-03-02T16:13:04.737Z,257.98
2023-03-02T16:16:13.553Z,283.76
2023-03-02T16:19:22.011Z,312.31
2023-03-02T16:22:28.013Z,310.33
2023-03-02T16:25:34.808Z,286.36
2023-03-02T16:28:40.700Z,284.34
2023-03-02T16:31:51.636Z,286.66
2023-03-02T16:34:58.049Z,282.59
2023-03-02T16:38:05.015Z,289.00
2023-03-02T16:41:19.219Z,285.76
2023-03-02T16:44:25.896Z,286.95
2023-03-02T16:47:34.515Z,265.14
2023-03-02T16:50:41.614Z,277.94
2023-03-02T16:53:48.229Z,256.75
2023-03-02T16:56:54.897Z,269.73
2023-03-02T17:00:05.772Z,258.28
2023-03-02T17:03:15.151Z,281.76
2023-03-02T17:06:30.296Z,367.82
2023-03-02T17:09:41.442Z,1230.16
2023-03-02T17:12:50.266Z,1877.12
2023-03-02T17:15:57.751Z,2082.99
2023-03-02T17:19:06.208Z,1683.28
2023-03-02T17:22:12.990Z,1180.42
2023-03-02T17:25:19.229Z,960.07
2023-03-02T17:28:26.666Z,1974.58
2023-03-02T17:31:32.584Z,1327.16
2023-03-02T17:34:43.516Z,1032.26
2023-03-02T17:37:49.609Z,762.21
2023-03-02T17:40:56.188Z,690.92
2023-03-02T17:44:02.610Z,673.26
2023-03-02T17:47:13.236Z,750.38
2023-03-02T17:50:22.390Z,761.69
2023-03-02T17:53:28.900Z,770.79
2023-03-02T17:56:34.824Z,794.11
2023-03-02T17:59:43.106Z,826.28
2023-03-02T18:02:49.367Z,817.81
2023-03-02T18:05:58.763Z,891.05
2023-03-02T18:09:08.204Z,781.99
2023-03-02T18:12:14.793Z,667.56
2023-03-02T18:15:20.792Z,560.35
2023-03-02T18:18:27.857Z,492.50
2023-03-02T18:21:36.889Z,586.97
2023-03-02T18:24:43.447Z,659.20
2023-03-02T18:27:49.620Z,767.27
2023-03-02T18:30:56.228Z,745.76
2023-03-02T18:34:02.177Z,749.26
2023-03-02T18:37:11.793Z,823.99
2023-03-02T18:40:18.510Z,911.30
2023-03-02T18:43:25.137Z,817.11
2023-03-02T18:46:35.058Z,949.67
2023-03-02T18:49:42.774Z,2443.75
2023-03-02T18:52:53.073Z,1004.13
2023-03-02T18:55:59.927Z,676.37
2023-03-02T18:59:07.391Z,638.57
2023-03-02T19:02:17.242Z,657.65
2023-03-02T19:05:27.092Z,743.05
2023-03-02T19:08:37.229Z,713.10
2023-03-02T19:11:43.154Z,734.28
2023-03-02T19:14:50.074Z,724.53
2023-03-02T19:17:57.369Z,751.92
2023-03-02T19:21:05.041Z,759.76
2023-03-02T19:24:13.773Z,706.46
2023-03-02T19:27:20.494Z,688.66
2023-03-02T19:30:30.069Z,676.72
2023-03-02T19:33:36.955Z,715.76
2023-03-02T19:36:42.900Z,618.64
2023-03-02T19:39:52.596Z,614.77
2023-03-02T19:42:58.820Z,698.09
2023-03-02T19:46:05.616Z,832.04
2023-03-02T19:49:11.599Z,735.70
2023-03-02T19:52:18.594Z,694.77
2023-03-02T19:55:28.952Z,681.93
2023-03-02T19:58:35.945Z,743.83
2023-03-02T20:01:42.245Z,732.93
2023-03-02T20:04:51.078Z,766.99
2023-03-02T20:07:58.027Z,767.67
2023-03-02T20:11:07.957Z,736.65
2023-03-02T20:14:27.625Z,762.38
2023-03-02T20:17:39.750Z,764.54
2023-03-02T20:20:47.403Z,774.01
2023-03-02T20:23:54.752Z,761.33
2023-03-02T20:27:03.727Z,740.68
2023-03-02T20:30:21.631Z,737.42
2023-03-02T20:33:32.456Z,726.14
2023-03-02T20:36:40.988Z,761.32
2023-03-02T20:39:49.869Z,744.68
2023-03-02T20:42:59.254Z,804.95
2023-03-02T20:46:05.969Z,747.56
2023-03-02T20:49:15.992Z,837.78
2023-03-02T20:52:21.830Z,873.61
2023-03-02T20:55:29.822Z,927.80
2023-03-02T20:58:41.315Z,867.06
2023-03-02T21:01:48.185Z,793.46
2023-03-02T21:04:54.429Z,811.51
2023-03-02T21:08:01.608Z,796.30
2023-03-02T21:11:08.098Z,786.24
2023-03-02T21:14:17.565Z,849.13
2023-03-02T21:17:24.471Z,815.37
2023-03-02T21:20:36.040Z,851.30
2023-03-02T21:23:42.747Z,1166.57
2023-03-02T21:26:52.279Z,1085.18
2023-03-02T21:30:03.456Z,1022.52
2023-03-02T21:33:10.572Z,1148.58
2023-03-02T21:36:22.360Z,1067.59
2023-03-02T21:39:29.444Z,1032.08
2023-03-02T21:42:35.317Z,1092.83
2023-03-02T21:45:45.300Z,1027.56
2023-03-02T21:48:53.625Z,970.38
2023-03-02T21:52:00.756Z,982.86
2023-03-02T21:55:06.976Z,991.06
2023-03-02T21:58:13.637Z,970.68
2023-03-02T22:01:22.251Z,1002.31
2023-03-02T22:04:28.939Z,957.42
2023-03-02T22:07:35.075Z,903.26
2023-03-02T22:10:45.631Z,896.27
2023-03-02T22:13:54.077Z,921.61
2023-03-02T22:17:03.695Z,939.28
2023-03-02T22:20:20.596Z,975.33
2023-03-02T22:23:29.431Z,925.35
2023-03-02T22:26:35.851Z,1031.66
2023-03-02T22:29:46.859Z,921.14
2023-03-02T22:32:58.385Z,877.71
2023-03-02T22:36:19.118Z,863.54
2023-03-02T22:39:36.355Z,865.49
2023-03-02T22:42:44.036Z,908.25
2023-03-02T22:45:51.195Z,904.81
2023-03-02T22:49:02.606Z,953.94
2023-03-02T22:52:21.170Z,950.90
2023-03-02T22:55:45.137Z,961.07
2023-03-02T22:58:53.739Z,959.48
2023-03-02T23:02:05.435Z,937.52
2023-03-02T23:05:29.846Z,937.95
2023-03-02T23:08:36.598Z,919.62
2023-03-02T23:11:45.118Z,960.82
2023-03-02T23:14:54.546Z,969.30
2023-03-02T23:18:01.608Z,1012.04
2023-03-02T23:21:24.174Z,928.98
2023-03-02T23:24:30.125Z,925.31
2023-03-02T23:27:36.790Z,945.05
2023-03-02T23:30:42.763Z,919.60
2023-03-02T23:33:55.808Z,895.73
2023-03-02T23:37:10.240Z,825.12
2023-03-02T23:40:23.101Z,776.69
2023-03-02T23:43:29.266Z,778.87
2023-03-02T23:46:36.714Z,784.55
2023-03-02T23:49:42.617Z,755.41
2023-03-02T23:52:51.858Z,751.11
2023-03-02T23:55:58.815Z,828.92
2023-03-02T23:59:05.545Z,818.27
